Time;durP1;ratioP1;P1;durP2;ratioP2;P2;SDS_P1;SDS_P2;PMS_P1;PMS_P2;Temp;Humidity;BMP_temperature;BMP_pressure;BME280_temperature;BME280_humidity;BME280_pressure;Samples;Min_cycle;Max_cycle;Signal;HPM_P1;HPM_P2
2023/02/02 00:00:25;;;;;;;28.77;14.90;;;;;;;1.31;70.52;100000.16;124647;1102;104252;-77
2023/02/02 00:03:16;;;;;;;30.17;15.43;;;;;;;1.28;70.25;99998.28;124587;1102;101891;-77
2023/02/02 00:05:49;;;;;;;33.50;15.83;;;;;;;1.27;70.03;99991.31;124543;1102;104233;-78
2023/02/02 00:08:23;;;;;;;29.90;15.87;;;;;;;1.27;70.10;99990.44;124771;1102;104198;-78
2023/02/02 00:10:56;;;;;;;31.53;15.77;;;;;;;1.26;70.35;99997.27;124437;1105;102393;-78
2023/02/02 00:13:27;;;;;;;30.97;16.53;;;;;;;1.22;70.21;99995.30;124598;1102;101797;-77
2023/02/02 00:15:58;;;;;;;31.47;15.73;;;;;;;1.19;70.24;99995.98;124638;1102;104189;-78
2023/02/02 00:18:30;;;;;;;32.37;16.27;;;;;;;1.15;70.79;99995.69;124648;1102;104371;-77
2023/02/02 00:21:01;;;;;;;32.23;16.57;;;;;;;1.15;70.24;100000.86;124576;1102;104290;-77
2023/02/02 00:23:32;;;;;;;37.43;16.93;;;;;;;1.17;70.56;99995.00;124631;1102;104211;-77
2023/02/02 00:26:04;;;;;;;31.63;15.80;;;;;;;1.21;70.49;99996.09;124603;1102;104178;-77
2023/02/02 00:28:35;;;;;;;34.53;17.23;;;;;;;1.23;70.28;99992.81;124607;1102;102367;-78
2023/02/02 00:31:06;;;;;;;37.37;16.80;;;;;;;1.28;70.80;99987.03;124593;1102;104185;-78
2023/02/02 00:33:37;;;;;;;33.77;17.00;;;;;;;1.28;70.62;99972.44;124613;1102;104296;-77
2023/02/02 00:36:10;;;;;;;29.63;15.00;;;;;;;1.29;70.63;99976.78;124651;1102;104316;-78
2023/02/02 00:38:41;;;;;;;33.83;15.10;;;;;;;1.30;70.64;99965.66;124633;1102;104112;-77
2023/02/02 00:41:12;;;;;;;29.50;14.03;;;;;;;1.35;71.09;99960.78;124651;1102;102776;-77
2023/02/02 00:43:43;;;;;;;28.67;13.53;;;;;;;1.38;70.88;99964.45;124599;1102;101836;-78
2023/02/02 00:46:18;;;;;;;29.93;14.60;;;;;;;1.41;70.40;99961.17;124657;1102;102638;-77
2023/02/02 00:48:51;;;;;;;28.30;14.20;;;;;;;1.45;70.84;99960.59;124640;1102;104214;-78
2023/02/02 00:51:22;;;;;;;32.17;14.73;;;;;;;1.47;70.68;99950.34;124637;1102;104185;-77
2023/02/02 00:53:54;;;;;;;29.63;13.97;;;;;;;1.48;70.90;99950.44;124589;1102;102612;-77
2023/02/02 00:56:25;;;;;;;31.47;15.63;;;;;;;1.47;70.87;99948.64;124592;1102;102032;-77
2023/02/02 00:58:57;;;;;;;32.53;15.40;;;;;;;1.49;70.80;99946.15;124445;1102;104220;-78
2023/02/02 01:01:37;;;;;;;30.03;14.20;;;;;;;1.49;70.97;99951.32;124582;1102;102217;-77
2023/02/02 01:04:08;;;;;;;30.47;15.10;;;;;;;1.51;71.07;99945.46;124511;1102;102411;-77
2023/02/02 01:06:40;;;;;;;29.23;14.20;;;;;;;1.51;70.64;99952.30;124638;1102;104185;-77
2023/02/02 01:09:12;;;;;;;31.70;14.47;;;;;;;1.50;71.06;99950.53;124389;1102;104233;-77
2023/02/02 01:11:44;;;;;;;29.13;14.13;;;;;;;1.51;70.87;99949.72;124607;1102;101861;-77
2023/02/02 01:14:15;;;;;;;29.10;13.80;;;;;;;1.47;71.43;99934.83;124556;1102;104326;-77
2023/02/02 01:16:46;;;;;;;29.50;14.00;;;;;;;1.47;71.07;99942.58;124634;1102;101994;-78
2023/02/02 01:19:17;;;;;;;27.73;13.50;;;;;;;1.44;70.78;99941.57;124647;1102;102048;-78
2023/02/02 01:21:49;;;;;;;26.20;12.37;;;;;;;1.46;71.08;99948.54;124619;1102;104239;-77
2023/02/02 01:24:21;;;;;;;;;;;;;;;1.44;70.88;99943.27;124614;1101;101862;-78
2023/02/02 01:26:52;;;;;;;24.93;12.20;;;;;;;1.40;71.41;99942.20;124506;1102;104198;-77
2023/02/02 01:29:24;;;;;;;27.97;12.40;;;;;;;1.38;70.98;99942.88;124540;1102;104275;-77
2023/02/02 01:31:55;;;;;;;29.87;13.53;;;;;;;1.37;70.89;99942.00;124485;1102;104718;-77
2023/02/02 01:34:26;;;;;;;36.47;19.50;;;;;;;1.34;70.70;99940.89;124480;1102;104187;-77
2023/02/02 01:36:58;;;;;;;44.60;25.57;;;;;;;1.31;71.52;99944.20;124639;1102;104112;-77
2023/02/02 01:39:29;;;;;;;44.30;24.57;;;;;;;1.31;70.89;99938.11;124571;1102;104223;-77
2023/02/02 01:42:00;;;;;;;42.27;22.67;;;;;;;1.29;71.14;99934.55;124515;1102;104315;-77
2023/02/02 01:45:04;;;;;;;42.97;22.30;;;;;;;1.26;70.72;99940.41;124654;1102;104226;-77
2023/02/02 01:47:39;;;;;;;39.47;20.27;;;;;;;1.21;70.96;99928.89;124564;1102;101932;-78
2023/02/02 01:50:13;;;;;;;38.00;19.60;;;;;;;1.18;71.61;99937.33;124556;1102;101845;-77
2023/02/02 01:52:47;;;;;;;40.52;19.87;;;;;;;1.16;71.31;99931.17;124530;1101;104233;-77
2023/02/02 01:55:21;;;;;;;40.67;20.65;;;;;;;1.14;71.57;99929.28;124520;1102;104211;-77
2023/02/02 01:57:56;;;;;;;37.70;19.27;;;;;;;1.11;71.07;99929.09;124610;1102;104210;-78
2023/02/02 02:00:28;;;;;;;38.73;20.00;;;;;;;1.06;70.86;99928.78;124568;1102;101846;-77
2023/02/02 02:03:05;;;;;;;41.93;19.97;;;;;;;1.04;71.32;99925.22;124536;1102;102246;-77
2023/02/02 02:05:40;;;;;;;38.13;19.03;;;;;;;1.01;71.29;99938.86;124515;1102;102033;-77
2023/02/02 02:08:17;;;;;;;39.43;18.27;;;;;;;1.00;71.40;99938.77;124416;1102;104258;-77
2023/02/02 02:10:48;;;;;;;35.90;17.37;;;;;;;0.96;71.17;99944.52;124496;1102;101976;-77
2023/02/02 02:13:22;;;;;;;38.13;17.37;;;;;;;0.92;71.14;99940.84;124548;1102;102280;-77
2023/02/02 02:18:50;;;;;;;;;;;;;;;0.85;71.37;99948.98;124592;1102;102122;-77
2023/02/02 02:28:32;;;;;;;35.07;17.00;;;;;;;0.70;71.23;99939.44;124519;1102;104335;-77
2023/02/02 02:31:27;;;;;;;34.43;16.40;;;;;;;0.67;71.81;99940.91;124515;1102;101935;-77
2023/02/02 02:34:05;;;;;;;31.07;15.20;;;;;;;0.65;71.04;99932.17;124465;1102;104396;-78
2023/02/02 02:36:45;;;;;;;33.37;16.30;;;;;;;0.61;71.36;99936.25;124511;1102;108231;-77
2023/02/02 02:39:25;;;;;;;32.43;16.00;;;;;;;0.60;71.14;99931.87;124584;1102;104389;-77
2023/02/02 02:42:01;;;;;;;34.60;16.37;;;;;;;0.57;71.24;99946.27;124481;1102;104323;-78
2023/02/02 02:44:33;;;;;;;30.47;14.53;;;;;;;0.54;71.05;99940.09;124468;1102;101847;-77
2023/02/02 02:47:05;;;;;;;32.47;15.33;;;;;;;0.52;71.47;99938.22;124457;1102;117811;-77
2023/02/02 02:49:43;;;;;;;29.50;15.20;;;;;;;0.51;71.25;99927.01;124542;1102;104089;-78
2023/02/02 02:52:15;;;;;;;30.43;14.60;;;;;;;0.50;71.39;99938.11;124519;1102;104192;-78
2023/02/02 02:54:49;;;;;;;31.63;14.67;;;;;;;0.49;71.74;99935.43;124521;1102;101864;-77
2023/02/02 02:57:37;;;;;;;33.77;15.60;;;;;;;0.46;71.51;99933.53;124473;1102;104239;-77
2023/02/02 03:00:23;;;;;;;33.33;15.90;;;;;;;0.45;71.90;99928.27;124576;1102;102424;-77
2023/02/02 03:03:05;;;;;;;31.30;14.50;;;;;;;0.42;71.94;99935.80;124567;1102;101884;-77
2023/02/02 03:05:47;;;;;;;31.10;14.10;;;;;;;0.37;72.01;99938.08;124561;1102;102016;-78
2023/02/02 03:08:24;;;;;;;30.30;15.13;;;;;;;0.35;71.42;99939.67;124641;1102;102363;-77
2023/02/02 03:10:58;;;;;;;32.53;16.03;;;;;;;0.34;71.63;99940.45;124576;1102;102149;-77
2023/02/02 03:13:31;;;;;;;31.60;15.58;;;;;;;0.33;71.61;99928.36;124664;1102;104189;-77
2023/02/02 03:16:02;;;;;;;31.73;14.60;;;;;;;0.33;71.39;99933.52;124496;1102;104402;-78
2023/02/02 03:18:34;;;;;;;32.65;16.20;;;;;;;0.30;71.94;99933.31;124619;1102;104291;-77
2023/02/02 03:21:06;;;;;;;30.73;15.77;;;;;;;0.30;71.83;99934.20;124651;1102;102044;-77
2023/02/02 03:23:37;;;;;;;32.33;15.57;;;;;;;0.29;71.50;99929.81;124702;1102;104182;-77
2023/02/02 03:26:09;;;;;;;33.13;15.60;;;;;;;0.29;71.50;99924.66;124615;1102;104179;-78
2023/02/02 03:28:40;;;;;;;33.17;15.17;;;;;;;0.28;71.76;99925.47;124631;1102;102071;-77
2023/02/02 03:31:12;;;;;;;29.50;15.67;;;;;;;0.26;71.31;99921.87;124607;1102;104284;-77
2023/02/02 03:33:43;;;;;;;34.50;15.50;;;;;;;0.26;71.82;99919.29;124588;1102;104271;-77
2023/02/02 03:36:14;;;;;;;33.83;15.57;;;;;;;0.27;71.62;99920.20;124649;1102;104185;-78
2023/02/02 03:38:45;;;;;;;33.90;15.57;;;;;;;0.25;72.04;99914.94;124590;1102;101868;-78
2023/02/02 03:41:17;;;;;;;30.15;15.80;;;;;;;0.24;72.00;99914.84;124517;1102;104227;-77
2023/02/02 03:43:48;;;;;;;31.60;15.77;;;;;;;0.24;71.81;99922.58;124535;1102;104320;-78
2023/02/02 03:46:24;;;;;;;33.33;15.63;;;;;;;0.24;71.78;99922.58;124595;1102;104262;-77
2023/02/02 03:48:58;;;;;;;35.87;13.73;;;;;;;0.22;71.49;99912.16;124561;1102;104185;-78
2023/02/02 03:51:29;;;;;;;38.47;14.83;;;;;;;0.20;71.96;99915.41;124522;1102;102011;-77
2023/02/02 03:54:00;;;;;;;30.03;14.23;;;;;;;0.18;71.91;99917.88;124554;1102;104287;-77
2023/02/02 03:56:32;;;;;;;31.17;14.03;;;;;;;0.17;71.92;99918.66;124617;1102;104332;-78
2023/02/02 03:59:03;;;;;;;28.33;12.97;;;;;;;0.17;71.29;99923.83;124578;1102;104284;-77
2023/02/02 04:01:35;;;;;;;27.13;12.77;;;;;;;0.15;72.07;99926.30;124556;1102;104141;-77
2023/02/02 04:04:13;;;;;;;28.10;13.40;;;;;;;0.15;71.58;99921.14;124590;1102;104485;-78
2023/02/02 04:06:46;;;;;;;28.67;13.30;;;;;;;0.13;72.30;99924.43;124520;1102;102236;-77
2023/02/02 04:09:17;;;;;;;27.90;12.37;;;;;;;0.10;71.33;99924.22;124600;1101;101884;-77
2023/02/02 04:11:49;;;;;;;26.47;12.70;;;;;;;0.05;71.94;99929.06;124608;1102;104191;-77
2023/02/02 04:14:20;;;;;;;26.83;13.40;;;;;;;0.03;71.76;99929.74;124578;1102;101942;-77
2023/02/02 04:16:51;;;;;;;30.15;12.95;;;;;;;0.02;71.83;99927.94;124626;1102;104380;-77
2023/02/02 04:19:23;;;;;;;28.90;14.20;;;;;;;0.03;71.71;99934.91;124543;1102;104082;-78
2023/02/02 04:21:56;;;;;;;30.10;14.40;;;;;;;0.03;71.56;99927.16;124665;1102;102009;-78
2023/02/02 04:24:31;;;;;;;28.37;13.23;;;;;;;0.02;71.90;99927.94;124668;1102;102229;-77
2023/02/02 04:27:02;;;;;;;28.20;13.20;;;;;;;0.00;72.23;99925.29;124675;1102;104221;-77
2023/02/02 04:29:33;;;;;;;31.93;15.33;;;;;;;-0.06;72.07;99932.61;124685;1102;102776;-78
2023/02/02 04:32:05;;;;;;;33.03;16.53;;;;;;;-0.08;71.70;99936.74;124529;1102;104089;-78
2023/02/02 04:34:36;;;;;;;35.93;17.83;;;;;;;-0.11;71.84;99931.38;124572;1102;104185;-77
2023/02/02 04:37:07;;;;;;;38.77;18.23;;;;;;;-0.15;72.13;99934.55;124569;1102;104325;-77
2023/02/02 04:39:38;;;;;;;36.33;18.13;;;;;;;-0.16;72.26;99938.80;124684;1102;101967;-78
2023/02/02 04:42:10;;;;;;;35.90;17.20;;;;;;;-0.15;72.14;99937.13;124686;1102;104354;-77
2023/02/02 04:44:42;;;;;;;37.87;17.90;;;;;;;-0.13;72.19;99941.58;124677;1102;101978;-78
2023/02/02 04:47:14;;;;;;;34.27;17.43;;;;;;;-0.10;71.98;99944.38;124609;1102;104248;-78
2023/02/02 04:49:45;;;;;;;39.10;18.67;;;;;;;-0.08;71.94;99944.48;124627;1102;104192;-77
2023/02/02 04:52:16;;;;;;;39.67;17.73;;;;;;;-0.06;72.58;99942.92;124637;1102;102348;-78
2023/02/02 04:54:47;;;;;;;37.37;17.13;;;;;;;-0.04;72.91;99944.80;124622;1102;104182;-77
2023/02/02 04:57:19;;;;;;;36.13;17.43;;;;;;;-0.03;72.58;99931.13;124486;1102;101893;-78
2023/02/02 04:59:50;;;;;;;34.50;17.10;;;;;;;-0.01;72.11;99942.43;124554;1102;104169;-77
2023/02/02 05:02:21;;;;;;;31.20;15.93;;;;;;;0.03;72.53;99934.91;124657;1102;103035;-76
2023/02/02 05:04:52;;;;;;;32.63;16.53;;;;;;;0.06;71.96;99942.85;124579;1102;104281;-77
2023/02/02 05:07:23;;;;;;;34.17;18.17;;;;;;;0.07;72.69;99932.64;124652;1102;103652;-77
2023/02/02 05:09:55;;;;;;;31.60;15.43;;;;;;;0.12;72.81;99932.95;124596;1102;107865;-77
2023/02/02 05:12:26;;;;;;;32.53;14.93;;;;;;;0.15;72.74;99934.05;124620;1102;104195;-77
2023/02/02 05:14:59;;;;;;;31.43;16.30;;;;;;;0.19;72.58;99932.59;124546;1102;101843;-77
2023/02/02 05:17:31;;;;;;;28.43;13.77;;;;;;;0.21;72.54;99936.16;124762;1102;104262;-78
2023/02/02 05:20:02;;;;;;;29.23;14.77;;;;;;;0.26;72.50;99933.89;124712;1102;104179;-78
2023/02/02 05:22:34;;;;;;;29.97;15.53;;;;;;;0.30;72.50;99938.47;124716;1102;104357;-78
2023/02/02 05:25:06;;;;;;;32.83;15.30;;;;;;;0.35;72.95;99945.72;124724;1101;104185;-78
2023/02/02 05:27:37;;;;;;;31.57;15.03;;;;;;;0.42;73.00;99949.63;124649;1102;104189;-78
2023/02/02 05:30:13;;;;;;;29.83;14.13;;;;;;;0.48;72.75;99941.38;124777;1102;103420;-78
2023/02/02 05:32:44;;;;;;;28.20;14.13;;;;;;;0.54;73.04;99944.37;124828;1102;102048;-77
2023/02/02 05:35:15;;;;;;;30.35;13.65;;;;;;;0.60;72.74;99934.45;124658;1102;104322;-78
2023/02/02 05:37:47;;;;;;;29.67;14.77;;;;;;;0.65;73.20;99937.33;124853;1102;102068;-78
2023/02/02 05:40:18;;;;;;;31.03;14.60;;;;;;;0.68;72.97;99934.95;124678;1102;104236;-78
2023/02/02 05:42:50;;;;;;;30.33;14.03;;;;;;;0.71;73.38;99933.45;124904;1102;101977;-77
2023/02/02 05:45:22;;;;;;;28.30;14.03;;;;;;;0.75;72.69;99934.58;124883;1102;104232;-77
2023/02/02 05:47:55;;;;;;;28.53;15.10;;;;;;;0.79;73.04;99935.66;124834;1102;101830;-77
2023/02/02 05:50:27;;;;;;;29.33;15.10;;;;;;;0.79;73.03;99943.41;124549;1102;104240;-77
2023/02/02 05:53:06;;;;;;;28.57;13.70;;;;;;;0.79;72.92;99940.83;124659;1102;102041;-77
2023/02/02 05:55:39;;;;;;;29.70;14.97;;;;;;;0.80;72.96;99945.21;124780;1102;103632;-77
2023/02/02 05:58:10;;;;;;;28.53;14.10;;;;;;;0.83;72.96;99947.99;124899;1102;102205;-77
2023/02/02 06:00:42;;;;;;;30.30;14.35;;;;;;;0.88;73.18;99955.23;124728;1102;104194;-77
2023/02/02 06:03:13;;;;;;;34.43;16.43;;;;;;;0.94;72.95;99953.86;124743;1102;101852;-78
2023/02/02 06:05:44;;;;;;;33.40;15.37;;;;;;;0.98;73.24;99954.16;124692;1102;103203;-78
2023/02/02 06:08:17;;;;;;;34.67;15.43;;;;;;;1.01;73.00;99954.36;124705;1102;102338;-77
2023/02/02 06:10:48;;;;;;;33.80;16.10;;;;;;;1.03;73.15;99955.34;124865;1102;104179;-76
2023/02/02 06:13:19;;;;;;;28.70;14.35;;;;;;;1.05;73.37;99958.91;124866;1102;102409;-76
2023/02/02 06:15:51;;;;;;;28.47;14.27;;;;;;;1.07;73.41;99959.02;124789;1102;104233;-74
2023/02/02 06:18:22;;;;;;;30.50;15.80;;;;;;;1.10;72.74;99958.33;124694;1101;104278;-74
2023/02/02 06:21:01;;;;;;;27.75;13.80;;;;;;;1.14;73.09;99958.62;124815;1102;103395;-76
2023/02/02 06:23:33;;;;;;;29.37;15.13;;;;;;;1.23;73.58;99956.63;124928;1102;104686;-75
2023/02/02 06:26:07;;;;;;;31.53;14.33;;;;;;;1.34;73.62;99956.41;124860;1102;102428;-74
2023/02/02 06:28:36;;;;;;;;;;;;;;;1.43;73.58;99955.31;124683;1102;103546;-75
2023/02/02 06:31:09;;;;;;;27.10;13.47;;;;;;;1.53;73.57;99954.20;124930;1102;104265;-75
2023/02/02 06:33:41;;;;;;;28.27;13.27;;;;;;;1.58;72.98;99954.48;124971;1102;102169;-75
2023/02/02 06:36:12;;;;;;;30.17;12.80;;;;;;;1.60;73.18;99956.34;124830;1102;104134;-76
2023/02/02 06:38:44;;;;;;;25.13;11.60;;;;;;;1.62;73.21;99956.44;124686;1102;104256;-76
2023/02/02 06:41:32;;;;;;;34.40;13.03;;;;;;;1.64;72.79;99960.05;125060;1102;104213;-75
2023/02/02 06:44:04;;;;;;;27.57;11.90;;;;;;;1.66;73.05;99949.80;124948;1102;102385;-76
2023/02/02 06:46:45;;;;;;;29.67;12.35;;;;;;;1.69;72.77;99958.62;107537;1102;10001412;-77
2023/02/02 06:49:18;;;;;;;38.17;13.30;;;;;;;1.82;73.39;99959.39;125092;1102;103235;-76
2023/02/02 06:51:50;;;;;;;30.13;14.37;;;;;;;1.96;73.05;99964.63;124890;1102;102057;-75
2023/02/02 06:54:21;;;;;;;28.47;12.73;;;;;;;2.05;73.09;99960.80;124644;1102;102436;-76
2023/02/02 06:56:55;;;;;;;27.60;13.00;;;;;;;2.15;72.46;99958.88;124750;1102;104281;-76
2023/02/02 06:59:30;;;;;;;27.03;13.17;;;;;;;2.27;72.77;99962.98;124769;1102;104332;-75
2023/02/02 07:02:01;;;;;;;33.57;12.70;;;;;;;2.36;73.28;99954.89;124876;1102;103099;-76
2023/02/02 07:04:34;;;;;;;27.60;12.37;;;;;;;2.43;72.66;99957.94;124988;1102;102608;-76
2023/02/02 07:07:06;;;;;;;27.47;12.77;;;;;;;2.54;73.55;99958.58;124860;1102;103481;-76
2023/02/02 07:09:38;;;;;;;36.60;13.87;;;;;;;2.62;73.27;99957.31;124594;1102;102393;-75
2023/02/02 07:12:10;;;;;;;30.27;12.47;;;;;;;2.70;73.03;99955.17;124734;1102;103011;-76
2023/02/02 07:14:41;;;;;;;27.77;12.63;;;;;;;2.76;72.68;99950.35;124638;1102;104104;-77
2023/02/02 07:17:13;;;;;;;24.47;11.53;;;;;;;2.84;73.16;99956.86;124537;1102;104182;-77
2023/02/02 07:19:44;;;;;;;25.80;10.60;;;;;;;2.92;72.83;99959.02;124842;1102;103278;-75
2023/02/02 07:22:16;;;;;;;24.27;10.73;;;;;;;2.97;73.00;99957.56;124754;1102;103157;-76
2023/02/02 07:24:47;;;;;;;24.33;10.83;;;;;;;2.99;72.75;99958.54;124823;1102;104182;-77
2023/02/02 07:27:19;;;;;;;23.20;10.70;;;;;;;3.02;72.95;99959.62;124731;1102;102828;-75
2023/02/02 07:29:51;;;;;;;25.97;10.83;;;;;;;3.12;72.83;99958.44;124618;1102;104230;-76
2023/02/02 07:32:24;;;;;;;21.87;9.97;;;;;;;3.22;72.32;99959.84;124626;1102;103293;-75
2023/02/02 07:34:59;;;;;;;27.50;11.97;;;;;;;3.33;72.38;99955.27;124598;1102;104217;-75
2023/02/02 07:37:30;;;;;;;22.70;10.63;;;;;;;3.46;72.76;99951.64;124704;1102;103408;-75
2023/02/02 07:40:10;;;;;;;24.13;10.10;;;;;;;3.47;72.52;99953.44;124877;1102;102914;-75
2023/02/02 07:42:41;;;;;;;25.50;10.47;;;;;;;3.51;71.99;99961.47;124841;1102;104259;-75
2023/02/02 07:45:13;;;;;;;23.30;11.00;;;;;;;3.58;72.78;99961.02;124524;1102;104419;-76
2023/02/02 07:47:45;;;;;;;27.93;11.33;;;;;;;3.69;72.01;99969.36;124564;1102;104188;-76
2023/02/02 07:50:18;;;;;;;23.50;11.50;;;;;;;3.72;72.61;99966.93;124525;1102;103021;-76
2023/02/02 07:52:52;;;;;;;20.60;10.10;;;;;;;3.74;73.01;99978.30;124558;1102;104162;-76
2023/02/02 07:55:24;;;;;;;19.70;9.17;;;;;;;3.81;72.43;99966.55;124527;1102;102234;-75
2023/02/02 07:57:57;;;;;;;24.37;9.90;;;;;;;3.92;72.48;99968.01;124706;1102;102993;-76
2023/02/02 08:00:30;;;;;;;20.40;8.70;;;;;;;4.05;72.06;99960.88;124660;1102;103828;-74
2023/02/02 08:03:03;;;;;;;16.27;7.30;;;;;;;4.14;71.80;99958.77;124589;1102;104198;-75
2023/02/02 08:05:35;;;;;;;17.53;7.60;;;;;;;4.19;71.82;99957.33;124763;1102;103559;-77
2023/02/02 08:08:07;;;;;;;15.43;7.07;;;;;;;4.27;71.77;99962.89;124743;1102;102923;-76
2023/02/02 08:10:51;;;;;;;16.60;7.40;;;;;;;4.39;71.65;99962.65;124996;1102;104637;-76
2023/02/02 08:13:23;;;;;;;18.20;8.10;;;;;;;4.49;71.78;99955.41;124568;1102;102879;-75
2023/02/02 08:15:57;;;;;;;18.20;7.60;;;;;;;4.63;71.71;99961.31;124698;1102;104197;-76
2023/02/02 08:18:28;;;;;;;19.05;7.90;;;;;;;4.73;71.23;99957.45;124445;1102;102364;-75
2023/02/02 08:21:02;;;;;;;18.70;7.63;;;;;;;4.81;71.17;99958.73;124536;1102;103306;-75
2023/02/02 08:23:35;;;;;;;18.93;7.53;;;;;;;4.91;71.47;99957.50;124582;1102;102855;-77
2023/02/02 08:26:15;;;;;;;18.20;7.40;;;;;;;4.98;71.69;99951.77;124651;1102;104173;-76
2023/02/02 08:28:49;;;;;;;16.40;7.20;;;;;;;5.10;71.26;99958.41;124509;1102;103570;-76
2023/02/02 08:31:20;;;;;;;;;;;;;;;5.18;70.47;99962.27;124424;1102;104207;-76
2023/02/02 08:33:53;;;;;;;17.37;6.73;;;;;;;5.27;71.35;99954.91;124556;1102;102326;-76
2023/02/02 08:36:27;;;;;;;30.83;8.10;;;;;;;5.39;71.29;99962.39;124427;1102;103118;-77
2023/02/02 08:39:01;;;;;;;16.27;6.83;;;;;;;5.50;70.83;99966.42;124743;1102;104245;-75
2023/02/02 08:41:36;;;;;;;16.07;5.80;;;;;;;5.64;71.23;99966.16;124641;1102;102690;-76
2023/02/02 08:44:09;;;;;;;14.70;6.30;;;;;;;5.74;70.79;99957.97;124643;1102;104249;-75
2023/02/02 08:46:41;;;;;;;19.87;6.23;;;;;;;5.72;70.38;99959.62;124692;1102;102759;-75
2023/02/02 08:49:13;;;;;;;19.60;6.07;;;;;;;5.65;70.77;99963.63;124605;1102;103158;-77
2023/02/02 08:51:44;;;;;;;13.40;5.40;;;;;;;5.66;70.72;99962.81;124709;1102;104233;-75
2023/02/02 08:54:20;;;;;;;187.90;29.13;;;;;;;5.71;70.49;99966.52;124693;1102;104169;-76
2023/02/02 08:56:52;;;;;;;35.17;10.60;;;;;;;5.87;70.48;99964.63;124692;1102;103241;-76
2023/02/02 08:59:43;;;;;;;26.07;7.53;;;;;;;6.04;70.85;99966.31;124948;1102;104195;-76
2023/02/02 09:02:15;;;;;;;25.03;7.50;;;;;;;6.28;70.16;99961.31;124701;1102;103560;-75
2023/02/02 09:04:47;;;;;;;16.07;7.10;;;;;;;6.51;69.93;99963.14;124633;1102;103267;-76
2023/02/02 09:07:19;;;;;;;14.20;6.00;;;;;;;6.71;69.77;99962.27;124462;1102;102181;-76
2023/02/02 09:09:54;;;;;;;15.63;6.63;;;;;;;6.83;70.08;99970.62;124606;1101;102800;-73
2023/02/02 09:12:26;;;;;;;14.60;6.30;;;;;;;6.85;69.69;99960.25;124547;1102;104205;-75
2023/02/02 09:14:57;;;;;;;18.60;7.53;;;;;;;6.77;69.55;99965.14;125992;1101;102745;-75
2023/02/02 09:17:30;;;;;;;44.60;10.03;;;;;;;6.82;69.53;99958.42;124475;1102;104286;-75
2023/02/02 09:20:02;;;;;;;17.53;6.73;;;;;;;6.88;68.41;99946.45;124569;1102;104194;-75
2023/02/02 09:22:34;;;;;;;16.55;6.85;;;;;;;6.88;68.62;99944.73;124540;1102;104252;-75
2023/02/02 09:25:06;;;;;;;151.50;23.40;;;;;;;6.96;68.71;99945.05;124665;1102;102927;-75
2023/02/02 09:27:41;;;;;;;50.93;10.83;;;;;;;6.99;68.78;99940.84;124569;1102;104098;-75
2023/02/02 09:30:15;;;;;;;34.43;9.20;;;;;;;7.04;68.37;99927.98;124521;1102;102417;-76
2023/02/02 09:32:50;;;;;;;;;;;;;;;7.04;67.60;99922.77;126528;1101;101984;-76
2023/02/02 09:35:23;;;;;;;25.37;6.93;;;;;;;7.06;68.71;99921.12;126319;1101;101990;-77
2023/02/02 09:37:55;;;;;;;38.67;8.87;;;;;;;7.12;68.68;99925.69;126087;1102;101904;-76
2023/02/02 09:40:29;;;;;;;39.57;8.97;;;;;;;7.17;68.50;99926.78;125250;1102;103252;-74
2023/02/02 09:43:17;;;;;;;20.93;6.73;;;;;;;7.22;68.26;99925.23;124475;1102;102376;-75
2023/02/02 09:45:55;;;;;;;17.40;7.37;;;;;;;7.28;68.46;99921.99;124716;1102;104195;-74
2023/02/02 09:48:34;;;;;;;14.60;7.10;;;;;;;7.36;68.80;99916.22;124697;1102;102100;-75
2023/02/02 09:51:12;;;;;;;18.00;6.93;;;;;;;7.45;68.04;99917.41;124512;1102;104252;-74
2023/02/02 09:53:47;;;;;;;16.20;6.97;;;;;;;7.51;67.83;99909.81;124756;1102;103375;-76
2023/02/02 09:56:26;;;;;;;15.63;6.67;;;;;;;7.55;67.66;99907.38;124733;1102;103033;-75
2023/02/02 09:59:02;;;;;;;16.67;6.63;;;;;;;7.50;67.69;99908.93;124578;1102;104169;-74
2023/02/02 10:01:41;;;;;;;17.77;7.07;;;;;;;7.39;66.98;99910.25;124724;1102;104254;-75
2023/02/02 10:04:19;;;;;;;70.03;11.00;;;;;;;7.31;67.40;99912.55;124715;1102;102229;-77
2023/02/02 10:06:54;;;;;;;63.63;12.20;;;;;;;7.20;66.86;99911.25;124716;1102;102802;-76
2023/02/02 10:09:38;;;;;;;23.53;7.93;;;;;;;7.15;66.81;99907.55;124706;1102;104326;-77
2023/02/02 10:12:26;;;;;;;17.47;6.80;;;;;;;7.18;66.73;99905.97;124815;1102;102237;-75
2023/02/02 10:15:11;;;;;;;17.33;6.30;;;;;;;7.15;66.37;99910.16;124504;1102;104496;-75
2023/02/02 10:17:51;;;;;;;14.47;6.77;;;;;;;7.17;66.42;99909.40;124711;1102;104037;-75
2023/02/02 10:20:33;;;;;;;16.07;7.10;;;;;;;7.20;66.39;99912.13;124690;1102;104310;-74
2023/02/02 10:23:17;;;;;;;19.10;7.10;;;;;;;7.23;66.62;99910.45;124725;1102;102335;-75
2023/02/02 10:25:59;;;;;;;21.13;8.00;;;;;;;7.24;66.20;99910.52;124708;1102;103135;-75
2023/02/02 10:28:49;;;;;;;20.47;7.80;;;;;;;7.27;65.98;99908.03;124742;1102;104197;-73
2023/02/02 10:31:33;;;;;;;16.77;7.20;;;;;;;7.35;66.00;99897.89;124634;1102;102489;-74
2023/02/02 10:34:13;;;;;;;15.80;7.07;;;;;;;7.45;66.27;99904.35;124770;1102;103747;-75
2023/02/02 10:37:03;;;;;;;17.23;7.30;;;;;;;7.53;65.77;99900.34;124500;1102;104201;-74
2023/02/02 10:39:51;;;;;;;15.63;6.90;;;;;;;7.60;65.61;99898.84;124857;1102;104069;-75
2023/02/02 10:42:30;;;;;;;17.40;6.97;;;;;;;7.65;65.61;99892.97;124742;1102;102811;-74
2023/02/02 10:45:12;;;;;;;16.87;6.93;;;;;;;7.68;66.01;99893.09;124784;1102;102294;-74
2023/02/02 10:47:45;;;;;;;12.47;5.80;;;;;;;7.74;65.86;99895.02;124526;1102;119089;-73
2023/02/02 10:50:22;;;;;;;18.10;7.30;;;;;;;7.75;65.34;99894.20;124538;1102;103637;-77
2023/02/02 10:52:59;;;;;;;14.37;6.17;;;;;;;7.73;64.80;99891.53;124966;1102;103018;-76
2023/02/02 10:55:38;;;;;;;15.13;5.77;;;;;;;7.77;64.97;99887.30;125056;1102;104232;-75
2023/02/02 10:58:24;;;;;;;13.60;6.10;;;;;;;7.77;65.31;99886.42;124813;1102;102260;-76
2023/02/02 11:01:06;;;;;;;14.33;6.00;;;;;;;7.76;65.32;99874.19;124723;1102;102889;-75
2023/02/02 11:03:39;;;;;;;14.07;5.83;;;;;;;7.77;65.40;99882.08;124883;1102;102419;-76
2023/02/02 11:09:05;;;;;;;13.80;5.50;;;;;;;7.76;64.33;99869.88;124924;1102;103245;-75
2023/02/02 11:11:44;;;;;;;11.22;5.28;;;;;;;7.78;64.06;99862.09;124942;1102;102554;-74
2023/02/02 11:14:22;;;;;;;12.40;5.87;;;;;;;7.75;63.94;99865.47;124978;1102;103365;-74
2023/02/02 11:17:03;;;;;;;63.90;10.47;;;;;;;7.76;64.50;99858.52;124503;1102;102843;-74
2023/02/02 11:19:38;;;;;;;23.07;6.60;;;;;;;7.74;64.77;99863.68;124875;1102;104166;-74
2023/02/02 11:22:27;;;;;;;74.93;13.00;;;;;;;7.72;64.43;99858.40;125176;1102;102648;-74
2023/02/02 11:25:25;;;;;;;35.30;8.10;;;;;;;7.69;64.07;99860.02;125178;1102;103495;-75
2023/02/02 11:27:57;;;;;;;33.90;7.43;;;;;;;7.71;64.14;99858.34;125079;1102;102303;-74
2023/02/02 11:30:36;;;;;;;19.10;5.53;;;;;;;7.72;63.93;99857.52;125091;1102;102155;-76
2023/02/02 11:33:27;;;;;;;13.13;5.07;;;;;;;7.78;63.82;99843.81;124695;1102;104214;-76
2023/02/02 11:36:18;;;;;;;17.17;6.03;;;;;;;7.87;63.56;99837.19;124732;1105;102076;-75
2023/02/02 11:39:10;;;;;;;16.30;4.70;;;;;;;7.96;63.99;99839.22;124934;1102;102293;-74
2023/02/02 11:41:42;;;;;;;11.93;4.58;;;;;;;8.07;63.61;99837.89;116159;1102;10001558;-74
2023/02/02 11:44:28;;;;;;;28.70;7.67;;;;;;;8.16;63.10;99834.69;124877;1102;102191;-74
2023/02/02 11:47:03;;;;;;;15.23;5.40;;;;;;;8.18;63.06;99843.50;124820;1102;104338;-76
2023/02/02 11:49:43;;;;;;;14.43;4.97;;;;;;;8.17;62.57;99830.38;124916;1102;102292;-75
2023/02/02 11:52:23;;;;;;;10.27;4.10;;;;;;;8.13;62.68;99833.71;124811;1102;103004;-75
2023/02/02 11:55:01;;;;;;;11.87;4.70;;;;;;;8.03;62.78;99842.95;124729;1102;104317;-76
2023/02/02 11:57:39;;;;;;;39.77;7.07;;;;;;;7.94;62.29;99838.28;124955;1101;102874;-75